Time;durP1;ratioP1;P1;durP2;ratioP2;P2;SDS_P1;SDS_P2;PMS_P1;PMS_P2;Temp;Humidity;BMP_temperature;BMP_pressure;BME280_temperature;BME280_humidity;BME280_pressure;Samples;Min_cycle;Max_cycle;Signal;HPM_P1;HPM_P2
2023/08/03 00:00:12;;;;;;;2.35;0.40;;;;;;;15.89;69.58;99699.88;5023023;28;20141;-80
2023/08/03 00:02:38;;;;;;;2.55;0.30;;;;;;;15.86;69.65;99700.06;5023395;28;20049;-80
2023/08/03 00:05:08;;;;;;;2.35;0.22;;;;;;;15.73;69.61;99675.38;5025586;28;20041;-80
2023/08/03 00:07:35;;;;;;;0.50;0.30;;;;;;;15.76;69.60;99684.88;5021481;28;20395;-81
2023/08/03 00:10:02;;;;;;;0.30;0.25;;;;;;;15.82;69.53;99698.53;5024928;28;20071;-81
2023/08/03 00:12:29;;;;;;;1.30;0.20;;;;;;;15.68;69.50;99685.31;5024185;28;20144;-81
2023/08/03 00:14:56;;;;;;;1.52;0.30;;;;;;;15.78;69.65;99706.72;5018647;28;20049;-81
2023/08/03 00:17:23;;;;;;;0.73;0.20;;;;;;;15.75;69.60;99707.72;5016636;28;20068;-81
2023/08/03 00:19:50;;;;;;;3.88;0.30;;;;;;;15.72;69.60;99706.13;5023806;28;20056;-80
2023/08/03 00:22:18;;;;;;;0.30;0.20;;;;;;;15.70;69.58;99700.06;5019775;28;20046;-81
2023/08/03 00:24:45;;;;;;;0.32;0.30;;;;;;;15.68;69.75;99701.97;5024478;28;20054;-80
2023/08/03 00:27:12;;;;;;;0.88;0.30;;;;;;;15.50;69.92;99674.84;5026908;28;20413;-80
2023/08/03 00:29:39;;;;;;;0.30;0.30;;;;;;;15.65;69.68;99706.50;5022004;28;20133;-81
2023/08/03 00:32:07;;;;;;;4.88;0.30;;;;;;;15.62;69.73;99710.16;5032761;28;20037;-81
2023/08/03 00:34:34;;;;;;;0.75;0.20;;;;;;;15.60;69.66;99709.41;5024428;28;20053;-80
2023/08/03 00:37:01;;;;;;;1.00;0.20;;;;;;;15.56;69.78;99713.13;5031394;28;20809;-81
2023/08/03 00:39:30;;;;;;;0.43;0.20;;;;;;;15.43;69.53;99696.34;5021895;28;20053;-81
2023/08/03 00:41:57;;;;;;;0.30;0.28;;;;;;;15.45;69.64;99703.22;5012669;28;20544;-80
2023/08/03 00:44:24;;;;;;;4.15;0.30;;;;;;;15.42;69.96;99695.47;5013057;28;20096;-80
2023/08/03 00:46:51;;;;;;;2.30;0.30;;;;;;;15.47;69.89;99718.91;5013140;28;20060;-80
2023/08/03 00:49:18;;;;;;;2.10;0.40;;;;;;;15.44;69.98;99719.94;5013033;28;20046;-81
2023/08/03 00:51:45;;;;;;;1.00;0.30;;;;;;;15.42;69.94;99734.94;5012904;28;20056;-81
2023/08/03 00:54:12;;;;;;;6.50;0.30;;;;;;;15.39;70.08;99732.50;5013314;28;20049;-81
2023/08/03 00:56:41;;;;;;;0.30;0.30;;;;;;;15.38;70.37;99727.34;5013362;28;20516;-80
2023/08/03 00:59:10;;;;;;;2.78;0.30;;;;;;;15.28;70.40;99724.34;5021958;28;20053;-81
2023/08/03 01:01:38;;;;;;;2.60;0.30;;;;;;;15.31;70.66;99729.44;5020695;28;20061;-81
2023/08/03 01:04:05;;;;;;;0.32;0.30;;;;;;;15.35;70.93;99724.88;5015771;28;20454;-81
2023/08/03 01:06:32;;;;;;;1.27;0.60;;;;;;;15.26;70.90;99716.53;5028471;28;20526;-82
2023/08/03 01:09:00;;;;;;;2.78;0.30;;;;;;;15.35;71.64;99735.41;5032370;28;20435;-82
2023/08/03 01:11:28;;;;;;;2.15;0.40;;;;;;;15.35;71.73;99730.13;5021331;28;20100;-81
2023/08/03 01:13:57;;;;;;;0.70;0.30;;;;;;;15.28;71.83;99717.31;5030457;28;20045;-81
2023/08/03 01:16:24;;;;;;;0.63;0.32;;;;;;;15.35;71.69;99730.97;5019251;28;20046;-81
2023/08/03 01:18:51;;;;;;;0.75;0.30;;;;;;;15.34;71.94;99737.19;5025398;28;20053;-81
2023/08/03 01:21:20;;;;;;;0.47;0.30;;;;;;;15.19;71.80;99695.91;5024621;28;20044;-82
2023/08/03 01:23:49;;;;;;;1.27;0.75;;;;;;;15.35;72.47;99723.09;5016467;28;20497;-81
2023/08/03 01:26:16;;;;;;;0.68;0.35;;;;;;;15.38;72.13;99730.81;5020325;28;20751;-81
2023/08/03 01:28:43;;;;;;;0.60;0.30;;;;;;;15.38;72.23;99733.44;5014713;28;20621;-82
2023/08/03 01:31:10;;;;;;;1.75;0.30;;;;;;;15.39;72.58;99729.03;5025578;28;20046;-80
2023/08/03 01:33:38;;;;;;;1.58;0.30;;;;;;;15.26;72.43;99705.19;5012619;28;20046;-81
2023/08/03 01:36:05;;;;;;;0.28;0.28;;;;;;;15.39;72.33;99724.59;5023951;28;20061;-81
2023/08/03 01:38:32;;;;;;;2.13;0.30;;;;;;;15.41;72.38;99729.78;5025423;28;20556;-81
2023/08/03 01:41:00;;;;;;;2.83;0.32;;;;;;;15.37;72.28;99718.59;5020798;28;20559;-81
2023/08/03 01:43:28;;;;;;;1.00;0.30;;;;;;;15.40;72.21;99728.94;5026291;28;20060;-82
2023/08/03 01:45:55;;;;;;;1.10;0.30;;;;;;;15.39;72.21;99724.59;5012789;28;20049;-81
2023/08/03 01:48:22;;;;;;;1.42;0.30;;;;;;;15.38;72.24;99725.53;5025014;28;20045;-81
2023/08/03 01:50:49;;;;;;;3.20;1.10;;;;;;;15.39;72.40;99726.38;5012482;28;20054;-81
2023/08/03 01:53:17;;;;;;;0.60;0.30;;;;;;;15.26;72.40;99702.53;5012468;28;20042;-81
2023/08/03 01:55:46;;;;;;;2.20;0.40;;;;;;;15.38;72.58;99716.81;5012303;28;20119;-81
2023/08/03 01:58:15;;;;;;;0.35;0.30;;;;;;;15.33;72.11;99705.69;5012104;28;20054;-81
2023/08/03 02:00:42;;;;;;;0.30;0.25;;;;;;;15.32;72.03;99714.53;5012208;28;20509;-81
2023/08/03 02:03:09;;;;;;;0.55;0.30;;;;;;;15.35;72.16;99709.94;5012292;28;20060;-81
2023/08/03 02:05:36;;;;;;;1.45;0.30;;;;;;;15.35;72.03;99716.97;5017816;28;20057;-81
2023/08/03 02:08:03;;;;;;;0.35;0.20;;;;;;;15.35;72.08;99711.72;5026403;28;20045;-81
2023/08/03 02:10:30;;;;;;;1.25;0.40;;;;;;;15.31;71.90;99703.13;5021428;28;20490;-81
2023/08/03 02:12:56;;;;;;;0.57;0.30;;;;;;;15.32;72.26;99712.72;5020373;28;20049;-81
2023/08/03 02:15:25;;;;;;;2.05;0.40;;;;;;;15.25;72.32;99687.69;5025725;28;20045;-82
2023/08/03 02:17:52;;;;;;;0.45;0.45;;;;;;;15.29;72.02;99705.84;5014171;28;20056;-81
2023/08/03 02:20:19;;;;;;;0.60;0.40;;;;;;;15.29;72.38;99712.91;5019044;28;20473;-81
2023/08/03 02:22:47;;;;;;;1.58;0.30;;;;;;;15.26;72.22;99700.75;5026599;28;20045;-81
2023/08/03 02:25:15;;;;;;;4.28;0.30;;;;;;;15.29;72.36;99710.28;5022490;28;20054;-81
2023/08/03 02:27:42;;;;;;;0.30;0.28;;;;;;;15.26;72.34;99699.91;5018174;28;20112;-82
2023/08/03 02:30:10;;;;;;;3.92;0.73;;;;;;;15.28;72.41;99698.91;5030846;28;20131;-81
2023/08/03 02:32:39;;;;;;;1.35;0.40;;;;;;;15.28;72.08;99695.41;5012431;28;20054;-74
2023/08/03 02:35:07;;;;;;;2.25;0.30;;;;;;;15.26;72.13;99699.91;5010845;28;20528;-73
2023/08/03 02:37:34;;;;;;;2.15;0.30;;;;;;;15.25;72.35;99692.94;5015779;28;20155;-74
2023/08/03 02:40:01;;;;;;;1.17;0.30;;;;;;;15.24;72.59;99689.47;5017590;28;20045;-74
2023/08/03 02:42:28;;;;;;;1.08;0.30;;;;;;;15.23;72.38;99684.31;5018612;28;20136;-73
2023/08/03 02:44:55;;;;;;;0.80;0.30;;;;;;;15.22;72.41;99687.84;5017654;28;20451;-73
2023/08/03 02:47:22;;;;;;;0.73;0.40;;;;;;;15.21;72.44;99692.25;5025904;28;20041;-74
2023/08/03 02:49:50;;;;;;;0.32;0.30;;;;;;;15.21;72.45;99699.31;5021822;28;20697;-77
2023/08/03 02:52:17;;;;;;;1.35;0.30;;;;;;;15.21;72.58;99707.22;5026985;28;20053;-77
2023/08/03 02:54:44;;;;;;;2.80;0.40;;;;;;;15.21;73.15;99712.47;5026456;28;20089;-77
2023/08/03 02:57:11;;;;;;;1.05;0.32;;;;;;;15.11;73.51;99701.56;5023482;28;20053;-77
2023/08/03 02:59:38;;;;;;;1.27;0.43;;;;;;;15.23;74.00;99723.75;5023500;28;20056;-77
2023/08/03 03:02:05;;;;;;;2.50;0.55;;;;;;;15.24;74.16;99722.81;5028969;28;20413;-77
2023/08/03 03:04:32;;;;;;;2.17;0.85;;;;;;;15.26;74.73;99718.34;5022852;28;20056;-77
2023/08/03 03:07:00;;;;;;;2.22;0.98;;;;;;;15.27;74.92;99710.34;5021769;28;20148;-76
2023/08/03 03:09:27;;;;;;;2.17;0.90;;;;;;;15.30;75.32;99714.59;5024489;28;20063;-77
2023/08/03 03:11:55;;;;;;;5.88;0.90;;;;;;;15.32;75.61;99707.47;5026479;28;20045;-77
2023/08/03 03:14:22;;;;;;;2.55;1.00;;;;;;;15.35;75.74;99707.28;5022159;28;20076;-77
2023/08/03 03:16:49;;;;;;;6.95;1.55;;;;;;;15.38;76.27;99706.28;5019899;28;20430;-77
2023/08/03 03:19:16;;;;;;;3.85;0.80;;;;;;;15.40;76.32;99700.00;5019021;28;20471;-77
2023/08/03 03:21:43;;;;;;;3.72;1.02;;;;;;;15.43;76.20;99699.81;5019075;28;20038;-77
2023/08/03 03:24:11;;;;;;;6.97;1.00;;;;;;;15.45;76.39;99700.59;5013161;28;20789;-77
2023/08/03 03:26:38;;;;;;;7.20;1.55;;;;;;;15.45;76.76;99690.06;5012628;28;20046;-77
2023/08/03 03:29:05;;;;;;;1.05;0.65;;;;;;;15.50;76.79;99695.91;5018838;28;20053;-77
2023/08/03 03:31:32;;;;;;;4.45;0.85;;;;;;;15.52;76.78;99691.41;5021305;28;20052;-77
2023/08/03 03:33:59;;;;;;;3.90;1.23;;;;;;;15.56;76.94;99683.34;5016893;28;20085;-77
2023/08/03 03:36:26;;;;;;;3.53;1.10;;;;;;;15.55;76.79;99682.50;5028399;28;20071;-77
2023/08/03 03:38:53;;;;;;;4.63;0.93;;;;;;;15.52;76.68;99669.50;5018589;28;20417;-77
2023/08/03 03:41:21;;;;;;;4.57;0.80;;;;;;;15.64;76.95;99689.88;5025245;28;20053;-78
2023/08/03 03:43:48;;;;;;;5.43;0.82;;;;;;;15.63;77.03;99680.28;5018820;28;20449;-78
2023/08/03 03:46:15;;;;;;;1.42;0.80;;;;;;;15.70;76.74;99689.53;5021973;28;20156;-77
2023/08/03 03:48:42;;;;;;;5.55;1.40;;;;;;;15.74;77.20;99695.50;5018020;28;20561;-77
2023/08/03 03:51:09;;;;;;;9.80;1.50;;;;;;;15.79;77.42;99695.22;5019108;28;20046;-77
2023/08/03 03:53:36;;;;;;;8.95;2.08;;;;;;;15.80;77.82;99692.53;5017650;28;20781;-77
2023/08/03 03:56:03;;;;;;;3.92;1.33;;;;;;;15.79;77.77;99689.97;5019878;28;20046;-77
2023/08/03 03:58:31;;;;;;;9.15;1.98;;;;;;;15.89;77.65;99694.63;5019360;28;20568;-77
2023/08/03 04:00:58;;;;;;;3.13;1.20;;;;;;;15.93;77.77;99700.53;5019106;28;20046;-77
2023/08/03 04:03:26;;;;;;;9.73;2.17;;;;;;;15.91;77.74;99687.47;5020953;28;20054;-77
2023/08/03 04:05:54;;;;;;;7.85;1.67;;;;;;;16.01;77.86;99692.22;5017597;28;20047;-77
2023/08/03 04:08:21;;;;;;;10.75;2.33;;;;;;;16.03;78.09;99688.56;5018859;28;20052;-77
2023/08/03 04:10:47;;;;;;;6.38;1.20;;;;;;;16.08;78.08;99688.25;5017971;28;20121;-78
2023/08/03 04:13:14;;;;;;;3.20;1.20;;;;;;;16.13;78.22;99680.94;5019040;28;20049;-77
2023/08/03 04:15:43;;;;;;;7.15;1.42;;;;;;;16.17;78.42;99691.22;5017805;28;20124;-78
2023/08/03 04:18:10;;;;;;;5.78;1.23;;;;;;;16.23;78.53;99694.44;5016216;28;20056;-77
2023/08/03 04:20:37;;;;;;;6.40;1.17;;;;;;;16.27;78.56;99696.78;5019189;28;20058;-77
2023/08/03 04:23:04;;;;;;;7.40;1.02;;;;;;;16.32;78.64;99692.09;5019426;28;20502;-77
2023/08/03 04:25:31;;;;;;;4.15;1.02;;;;;;;16.38;78.76;99680.34;5017971;28;20061;-77
2023/08/03 04:27:58;;;;;;;2.85;0.88;;;;;;;16.41;78.60;99670.47;5017101;28;20056;-77
2023/08/03 04:30:25;;;;;;;4.93;0.60;;;;;;;16.46;78.36;99669.34;5019240;28;20050;-78
2023/08/03 04:32:53;;;;;;;3.75;1.33;;;;;;;16.50;78.39;99670.84;5012355;28;20505;-77
2023/08/03 04:35:20;;;;;;;7.75;0.95;;;;;;;16.54;78.29;99685.56;5026073;28;20072;-78
2023/08/03 04:37:47;;;;;;;4.35;0.82;;;;;;;16.52;78.14;99676.88;5021199;28;20053;-77
2023/08/03 04:40:14;;;;;;;3.70;0.80;;;;;;;16.61;78.26;99677.16;5020547;28;20486;-78
2023/08/03 04:42:41;;;;;;;5.07;0.70;;;;;;;16.65;78.20;99683.13;5020595;28;20045;-78
2023/08/03 04:45:08;;;;;;;4.05;0.88;;;;;;;16.68;78.08;99680.28;5017596;28;20445;-78
2023/08/03 04:47:35;;;;;;;4.43;0.80;;;;;;;16.71;78.07;99693.28;5020708;28;20042;-78
2023/08/03 04:50:04;;;;;;;2.30;0.70;;;;;;;16.74;77.84;99681.69;5020677;28;20500;-77
2023/08/03 04:52:31;;;;;;;3.38;0.60;;;;;;;16.72;77.66;99676.50;5009573;28;20052;-78
2023/08/03 04:54:58;;;;;;;6.88;0.65;;;;;;;16.80;77.75;99676.91;5019526;28;20087;-79
2023/08/03 04:57:25;;;;;;;3.50;0.98;;;;;;;16.83;77.55;99687.28;5018733;28;20064;-78
2023/08/03 04:59:51;;;;;;;5.15;0.60;;;;;;;16.86;77.41;99679.19;5018677;28;20044;-78
2023/08/03 05:02:18;;;;;;;5.15;0.70;;;;;;;16.89;77.49;99675.50;5008913;28;20053;-77
2023/08/03 05:04:45;;;;;;;4.03;0.70;;;;;;;16.92;77.41;99674.47;5018121;28;20493;-78
2023/08/03 05:07:13;;;;;;;1.10;0.70;;;;;;;16.95;77.41;99676.91;5020773;28;20052;-78
2023/08/03 05:09:40;;;;;;;5.07;1.08;;;;;;;16.97;77.32;99672.41;5016417;28;20045;-78
2023/08/03 05:12:08;;;;;;;3.90;1.00;;;;;;;16.99;77.30;99673.13;5018175;28;20064;-78
2023/08/03 05:14:35;;;;;;;7.05;0.90;;;;;;;17.03;77.38;99661.44;5014741;28;20499;-78
2023/08/03 05:17:02;;;;;;;3.95;0.93;;;;;;;17.01;77.32;99655.41;5018740;28;20049;-78
2023/08/03 05:19:29;;;;;;;1.90;0.68;;;;;;;17.04;77.49;99656.06;5019561;28;20410;-78
2023/08/03 05:21:57;;;;;;;3.70;0.85;;;;;;;17.06;77.46;99654.19;5020065;28;20046;-78
2023/08/03 05:24:25;;;;;;;2.47;0.57;;;;;;;17.13;77.69;99657.28;5016890;28;20081;-78
2023/08/03 05:26:52;;;;;;;5.13;0.90;;;;;;;17.18;77.54;99663.09;5015174;28;20048;-78
2023/08/03 05:29:19;;;;;;;4.22;0.70;;;;;;;17.22;77.51;99655.88;5008405;28;20042;-78
2023/08/03 05:31:48;;;;;;;2.85;1.13;;;;;;;17.26;77.47;99655.56;5012056;28;20049;-78
2023/08/03 05:34:15;;;;;;;3.88;1.30;;;;;;;17.29;77.66;99647.44;5008676;28;20056;-78
2023/08/03 05:36:42;;;;;;;4.10;0.60;;;;;;;17.31;77.48;99642.06;5015408;28;20400;-78
2023/08/03 05:39:10;;;;;;;6.32;0.88;;;;;;;17.30;77.49;99637.72;5015787;28;20049;-78
2023/08/03 05:41:38;;;;;;;3.63;0.52;;;;;;;17.43;77.64;99648.34;5020285;28;20053;-79
2023/08/03 05:44:05;;;;;;;4.40;0.93;;;;;;;17.47;77.51;99644.56;5018023;28;20052;-78
2023/08/03 05:46:33;;;;;;;2.47;0.85;;;;;;;17.50;77.56;99644.34;5016349;28;20050;-78
2023/08/03 05:49:00;;;;;;;4.50;0.70;;;;;;;17.56;77.43;99640.47;5022080;28;20330;-78
2023/08/03 05:51:28;;;;;;;3.70;0.90;;;;;;;17.60;77.64;99632.25;5018829;28;20050;-77
2023/08/03 05:53:57;;;;;;;3.28;0.88;;;;;;;17.64;77.40;99635.53;5009965;28;20046;-78
2023/08/03 05:56:24;;;;;;;6.00;1.13;;;;;;;17.69;77.14;99629.00;5009769;28;20060;-77
2023/08/03 05:58:54;;;;;;;2.80;0.60;;;;;;;17.71;77.33;99615.69;5013448;28;20525;-78
2023/08/03 06:01:22;;;;;;;5.38;1.10;;;;;;;17.72;77.16;99609.47;5020666;28;20204;-78
2023/08/03 06:03:53;;;;;;;3.42;0.80;;;;;;;17.83;77.22;99614.06;5020592;28;20046;-77
2023/08/03 06:06:21;;;;;;;2.88;1.10;;;;;;;17.87;77.39;99616.41;5017510;28;20402;-77
2023/08/03 06:08:51;;;;;;;3.80;0.88;;;;;;;17.91;77.16;99612.59;5018203;28;20409;-78
2023/08/03 06:11:20;;;;;;;3.78;0.82;;;;;;;17.94;77.32;99617.69;5018601;28;20041;-78
2023/08/03 06:13:48;;;;;;;3.38;1.13;;;;;;;17.96;77.20;99605.22;5018268;28;20050;-79
2023/08/03 06:16:17;;;;;;;2.28;0.60;;;;;;;18.05;77.28;99616.13;5018891;28;20076;-78
2023/08/03 06:18:48;;;;;;;3.85;0.73;;;;;;;18.08;77.08;99608.81;5025709;28;20514;-78
2023/08/03 06:21:16;;;;;;;4.60;0.77;;;;;;;18.13;76.95;99606.72;5024237;28;20064;-78
2023/08/03 06:23:45;;;;;;;4.70;0.80;;;;;;;18.18;76.79;99601.09;5027654;28;20053;-77
2023/08/03 06:26:14;;;;;;;6.32;1.00;;;;;;;18.23;76.65;99601.63;5020956;28;20046;-79
2023/08/03 06:28:41;;;;;;;2.40;0.70;;;;;;;18.27;76.33;99597.84;5018708;28;20072;-79
2023/08/03 06:31:14;;;;;;;5.43;1.13;;;;;;;18.33;76.10;99596.56;5024956;28;20050;-78
2023/08/03 06:33:43;;;;;;;7.85;1.60;;;;;;;18.37;76.05;99605.97;5024791;28;20053;-78
2023/08/03 06:36:13;;;;;;;1.70;1.17;;;;;;;18.40;76.27;99584.59;5020768;28;20057;-78
2023/08/03 06:38:41;;;;;;;3.50;0.80;;;;;;;18.44;76.13;99586.06;5024796;28;20497;-78
2023/08/03 06:41:09;;;;;;;7.70;1.55;;;;;;;18.48;75.81;99589.34;5025204;28;20066;-77
2023/08/03 06:43:35;;;;;;;1.67;0.60;;;;;;;18.49;75.73;99585.75;5021195;28;20060;-77
2023/08/03 06:46:03;;;;;;;3.20;0.68;;;;;;;18.53;75.74;99587.25;5026302;28;20045;-77
2023/08/03 06:48:30;;;;;;;2.10;1.05;;;;;;;18.55;75.71;99586.16;5020759;28;20057;-77
2023/08/03 06:50:58;;;;;;;3.97;0.73;;;;;;;18.58;75.56;99591.22;5023564;28;20049;-78
2023/08/03 06:53:25;;;;;;;4.50;0.88;;;;;;;18.61;75.65;99583.09;5025774;28;20060;-78
2023/08/03 06:55:52;;;;;;;4.55;1.13;;;;;;;18.64;75.22;99587.31;5023145;28;20049;-78
2023/08/03 06:58:19;;;;;;;3.70;0.80;;;;;;;18.65;75.33;99584.56;5024507;28;20172;-78
2023/08/03 07:00:46;;;;;;;5.22;0.80;;;;;;;18.66;75.20;99582.75;5024698;28;20050;-77
2023/08/03 07:03:14;;;;;;;4.43;0.60;;;;;;;18.62;75.07;99555.69;5024596;28;20502;-77
2023/08/03 07:05:41;;;;;;;3.83;0.70;;;;;;;18.68;74.93;99564.16;5023180;28;20041;-76
2023/08/03 07:08:09;;;;;;;6.88;0.80;;;;;;;18.73;74.98;99562.03;5024394;28;20042;-78
2023/08/03 07:10:37;;;;;;;4.68;0.95;;;;;;;18.54;74.91;99531.59;5019018;28;20050;-77
2023/08/03 07:13:04;;;;;;;5.53;1.13;;;;;;;18.72;74.91;99557.66;5021846;28;20049;-78
2023/08/03 07:15:33;;;;;;;4.72;1.20;;;;;;;18.75;74.83;99555.66;5024991;28;20050;-78
2023/08/03 07:18:01;;;;;;;1.02;0.80;;;;;;;18.76;74.90;99553.91;5022780;28;20060;-78
2023/08/03 07:20:28;;;;;;;6.53;1.45;;;;;;;18.78;74.73;99549.31;5026645;28;20473;-78
2023/08/03 07:22:55;;;;;;;2.55;0.80;;;;;;;18.48;74.65;99492.38;5021976;28;20046;-78
2023/08/03 07:25:24;;;;;;;3.83;1.08;;;;;;;18.77;74.72;99532.59;5018094;28;20052;-78
2023/08/03 07:27:52;;;;;;;6.47;1.08;;;;;;;18.83;74.59;99531.31;5012901;28;20061;-77
2023/08/03 07:30:19;;;;;;;2.97;1.08;;;;;;;18.82;74.49;99529.63;5011478;28;20052;-77
2023/08/03 07:32:46;;;;;;;7.05;1.70;;;;;;;18.81;74.54;99520.88;5020057;28;20049;-78
2023/08/03 07:35:13;;;;;;;4.18;1.05;;;;;;;18.85;74.82;99518.84;5020455;28;20057;-77
2023/08/03 07:37:40;;;;;;;3.60;1.20;;;;;;;18.86;74.75;99516.06;5023495;28;20056;-79
2023/08/03 07:40:08;;;;;;;5.28;0.90;;;;;;;18.88;74.86;99515.97;5020744;28;20058;-80
2023/08/03 07:42:37;;;;;;;3.40;0.98;;;;;;;18.91;74.75;99509.59;5022374;28;20037;-78
2023/08/03 07:45:04;;;;;;;3.97;1.13;;;;;;;18.92;74.87;99498.88;5012365;28;20129;-77
2023/08/03 07:47:31;;;;;;;5.43;1.50;;;;;;;18.94;74.80;99502.28;5012218;28;20054;-78
2023/08/03 07:49:58;;;;;;;2.47;0.90;;;;;;;18.96;74.89;99503.00;5022145;28;20057;-77
2023/08/03 07:52:25;;;;;;;4.70;1.30;;;;;;;18.96;75.24;99497.72;5019207;28;20050;-78
2023/08/03 07:54:54;;;;;;;3.35;1.23;;;;;;;19.00;75.11;99493.88;5017849;28;20172;-78
2023/08/03 07:57:21;;;;;;;3.42;1.30;;;;;;;19.02;75.09;99499.91;5022019;28;20418;-78
2023/08/03 07:59:52;;;;;;;4.72;1.38;;;;;;;19.05;74.93;99491.75;5020937;28;20064;-78
2023/08/03 08:02:20;;;;;;;1.48;0.85;;;;;;;19.07;74.86;99503.06;5020246;28;20502;-79
2023/08/03 08:04:51;;;;;;;3.83;1.20;;;;;;;18.99;74.88;99478.97;5020845;28;20092;-78
2023/08/03 08:07:19;;;;;;;4.93;1.13;;;;;;;18.91;74.79;99454.03;5020948;28;20054;-78
2023/08/03 08:09:46;;;;;;;3.75;1.13;;;;;;;19.09;74.82;99485.25;5019870;28;20486;-78
2023/08/03 08:12:13;;;;;;;3.65;0.98;;;;;;;19.08;75.02;99467.69;5019118;28;20060;-77
2023/08/03 08:14:40;;;;;;;2.78;1.20;;;;;;;19.07;74.80;99463.38;5018547;28;20049;-78
2023/08/03 08:17:09;;;;;;;3.90;1.00;;;;;;;19.00;74.74;99454.19;5016779;28;20191;-77
2023/08/03 08:19:35;;;;;;;5.57;1.48;;;;;;;19.14;74.66;99473.50;5019231;28;20056;-78
2023/08/03 08:22:03;;;;;;;3.22;1.25;;;;;;;19.14;74.70;99476.13;5017949;28;20387;-78
2023/08/03 08:24:30;;;;;;;5.18;1.00;;;;;;;19.14;74.63;99476.13;5021626;28;20054;-79
2023/08/03 08:26:57;;;;;;;6.22;1.35;;;;;;;19.14;74.81;99476.97;5019954;28;20041;-78
2023/08/03 08:29:24;;;;;;;5.28;1.10;;;;;;;19.14;74.67;99471.69;5017016;28;20049;-78
2023/08/03 08:31:51;;;;;;;2.80;1.50;;;;;;;19.13;74.75;99448.84;5022969;28;20056;-77
2023/08/03 08:34:19;;;;;;;6.78;1.40;;;;;;;19.09;74.97;99424.38;5026653;28;20049;-77
2023/08/03 08:36:46;;;;;;;4.15;1.23;;;;;;;19.12;74.89;99427.75;5027495;28;20562;-77
2023/08/03 08:39:13;;;;;;;5.93;1.50;;;;;;;19.09;74.85;99432.31;5020481;28;20115;-78
2023/08/03 08:41:41;;;;;;;4.30;1.23;;;;;;;19.04;74.67;99426.56;5019692;28;20049;-76
2023/08/03 08:44:13;;;;;;;11.82;2.67;;;;;;;19.04;74.46;99428.31;5018263;28;20109;-76
2023/08/03 08:46:42;;;;;;;3.85;1.50;;;;;;;19.08;74.83;99438.56;5020094;28;20116;-77
2023/08/03 08:49:09;;;;;;;3.60;1.10;;;;;;;19.08;74.71;99445.69;5018470;28;20056;-77
2023/08/03 08:51:40;;;;;;;3.05;1.25;;;;;;;19.07;74.70;99447.50;5019441;28;20053;-76
2023/08/03 08:54:07;;;;;;;5.60;1.63;;;;;;;19.07;74.66;99455.44;5020606;28;20060;-76
2023/08/03 08:56:34;;;;;;;2.03;1.25;;;;;;;18.95;74.70;99435.16;5019889;28;20046;-77
2023/08/03 08:59:01;;;;;;;4.57;1.58;;;;;;;19.06;74.96;99450.22;5018462;28;20060;-77
2023/08/03 09:01:29;;;;;;;5.75;1.63;;;;;;;19.05;74.94;99440.63;5019342;28;20049;-77
2023/08/03 09:03:56;;;;;;;6.38;1.55;;;;;;;19.04;75.01;99431.84;5019469;28;20046;-77
2023/08/03 09:06:23;;;;;;;4.30;1.38;;;;;;;19.03;74.92;99432.78;5017146;28;20104;-77
2023/08/03 09:08:54;;;;;;;5.15;1.30;;;;;;;18.96;75.01;99426.28;5022766;28;20587;-77
2023/08/03 09:11:38;;;;;;;3.45;1.70;;;;;;;19.00;74.79;99424.22;5019821;28;20076;-77
2023/08/03 09:14:07;;;;;;;4.00;1.30;;;;;;;18.96;74.77;99428.91;5020643;28;20052;-76
2023/08/03 09:16:34;;;;;;;3.17;1.75;;;;;;;18.92;75.04;99424.78;5018339;28;20056;-77
2023/08/03 09:19:01;;;;;;;5.18;1.27;;;;;;;18.91;75.01;99406.41;5016170;28;20054;-76
2023/08/03 09:21:28;;;;;;;4.95;1.77;;;;;;;18.88;75.01;99407.47;5018417;28;20084;-78
2023/08/03 09:23:57;;;;;;;2.45;1.35;;;;;;;18.86;74.97;99404.09;5019299;28;20077;-77
2023/08/03 09:26:25;;;;;;;6.82;1.42;;;;;;;18.83;74.88;99409.63;5017456;28;20758;-77
2023/08/03 09:28:52;;;;;;;6.65;2.88;;;;;;;18.81;74.99;99411.53;5018797;28;20056;-76
2023/08/03 09:31:25;;;;;;;3.70;1.95;;;;;;;18.79;74.88;99419.59;5024841;28;20045;-76
2023/08/03 09:33:57;;;;;;;3.33;1.20;;;;;;;18.68;75.21;99406.28;5016834;28;20062;-77
2023/08/03 09:36:23;;;;;;;4.88;1.40;;;;;;;18.77;75.09;99425.94;5018935;28;20059;-78
2023/08/03 09:38:51;;;;;;;6.05;1.17;;;;;;;18.71;75.30;99421.91;5017133;28;20414;-77
2023/08/03 09:41:34;;;;;;;3.22;1.95;;;;;;;18.75;75.07;99412.81;5021440;28;20053;-77
2023/08/03 09:44:02;;;;;;;11.45;2.45;;;;;;;18.72;75.30;99409.53;5020278;28;20073;-78
2023/08/03 09:46:30;;;;;;;6.30;2.00;;;;;;;18.50;75.46;99379.41;5021035;28;20059;-79
2023/08/03 09:48:57;;;;;;;12.40;2.60;;;;;;;18.69;75.58;99399.19;5020244;28;20498;-77
2023/08/03 09:51:28;;;;;;;12.35;2.92;;;;;;;18.66;75.67;99394.97;5014739;28;20053;-79
2023/08/03 09:53:59;;;;;;;10.07;2.55;;;;;;;18.59;75.83;99391.94;5019310;28;20056;-79
2023/08/03 09:56:33;;;;;;;11.32;2.13;;;;;;;18.58;76.17;99390.22;5019782;28;20151;-78
2023/08/03 09:59:04;;;;;;;5.30;1.40;;;;;;;18.54;76.29;99377.38;5009519;28;20100;-77
2023/08/03 10:01:33;;;;;;;8.10;1.85;;;;;;;18.60;76.45;99388.31;5016063;28;20045;-77
2023/08/03 10:04:04;;;;;;;5.10;1.52;;;;;;;18.59;76.59;99386.66;5021344;28;20071;-78
2023/08/03 10:06:34;;;;;;;6.55;1.92;;;;;;;18.54;76.74;99378.19;5019912;28;20051;-78
2023/08/03 10:09:04;;;;;;;4.47;1.50;;;;;;;18.59;76.84;99378.72;5019701;28;20140;-78
2023/08/03 10:11:38;;;;;;;2.55;1.10;;;;;;;18.60;76.69;99376.91;5016031;28;20068;-77
2023/08/03 10:14:06;;;;;;;;;;;;;;;18.60;76.27;99374.25;5022336;28;20050;-78
2023/08/03 10:16:34;;;;;;;5.32;1.75;;;;;;;18.58;76.37;99373.53;5018248;28;19925;-78
2023/08/03 10:19:02;;;;;;;5.90;1.60;;;;;;;18.57;76.47;99356.81;5009451;28;20418;-77
2023/08/03 10:21:30;;;;;;;6.85;1.38;;;;;;;18.57;76.55;99350.69;5011171;28;20054;-76
2023/08/03 10:24:12;;;;;;;5.68;1.55;;;;;;;18.58;76.85;99342.63;5022533;28;20071;-77
2023/08/03 10:26:41;;;;;;;6.80;1.80;;;;;;;18.56;77.06;99339.28;5019267;28;20129;-77
2023/08/03 10:29:08;;;;;;;3.42;1.30;;;;;;;18.57;77.07;99348.03;5014790;28;20486;-77
2023/08/03 10:31:52;;;;;;;2.40;1.27;;;;;;;18.63;76.95;99348.41;5018862;28;20474;-78
2023/08/03 10:34:26;;;;;;;5.00;1.50;;;;;;;18.56;76.84;99327.84;5020523;28;20050;-78
2023/08/03 10:36:55;;;;;;;4.45;1.45;;;;;;;18.68;77.11;99348.09;5030572;28;20522;-77
2023/08/03 10:39:46;;;;;;;4.57;1.80;;;;;;;18.71;76.88;99337.28;5012731;28;20065;-78
2023/08/03 10:42:29;;;;;;;6.07;1.77;;;;;;;18.67;76.66;99322.63;5021810;28;20137;-77
2023/08/03 10:45:27;;;;;;;6.38;1.60;;;;;;;18.72;76.54;99332.81;5009102;28;20751;-77
2023/08/03 10:47:55;;;;;;;6.28;1.95;;;;;;;18.71;76.63;99344.38;5009353;28;20136;-77
2023/08/03 10:50:58;;;;;;;4.50;1.23;;;;;;;18.72;76.27;99333.66;5016807;28;20046;-78
2023/08/03 10:53:25;;;;;;;4.45;1.60;;;;;;;18.71;76.56;99331.16;5019813;28;20136;-77
2023/08/03 10:56:04;;;;;;;6.50;1.52;;;;;;;18.72;76.37;99332.81;5015848;28;20045;-77
2023/08/03 10:58:41;;;;;;;6.72;1.40;;;;;;;18.72;76.28;99328.38;5015822;28;20081;-76
2023/08/03 11:01:08;;;;;;;3.95;1.67;;;;;;;18.71;76.25;99331.16;5020713;28;20091;-78
2023/08/03 11:03:38;;;;;;;6.00;1.77;;;;;;;18.69;76.42;99318.03;5019030;28;20050;-77
2023/08/03 11:06:06;;;;;;;5.97;1.33;;;;;;;18.70;76.20;99318.88;5021852;28;20061;-78
2023/08/03 11:08:36;;;;;;;5.35;1.35;;;;;;;18.70;76.39;99317.09;5023841;28;20050;-78
2023/08/03 11:11:04;;;;;;;1.98;1.52;;;;;;;18.69;76.51;99328.59;5027857;28;20045;-78
2023/08/03 11:13:32;;;;;;;8.88;1.60;;;;;;;18.69;76.13;99317.19;5024885;28;20058;-79
2023/08/03 11:15:59;;;;;;;5.78;1.52;;;;;;;18.68;76.27;99310.22;5012990;28;20124;-78
2023/08/03 11:18:26;;;;;;;2.65;1.40;;;;;;;18.68;76.62;99319.00;5012600;28;20050;-77
2023/08/03 11:20:53;;;;;;;6.05;1.65;;;;;;;18.65;76.13;99306.84;5017400;28;20050;-78
2023/08/03 11:23:20;;;;;;;4.47;1.38;;;;;;;18.65;76.30;99312.13;5022671;28;20496;-79
2023/08/03 11:25:47;;;;;;;5.20;1.55;;;;;;;18.67;76.32;99314.69;5026407;28;20696;-77
2023/08/03 11:28:18;;;;;;;5.22;1.35;;;;;;;18.69;76.37;99306.59;5025295;28;20133;-77
2023/08/03 11:30:47;;;;;;;5.38;1.20;;;;;;;18.61;76.55;99300.13;5024076;28;20057;-78
2023/08/03 11:33:14;;;;;;;3.85;1.42;;;;;;;18.69;76.23;99306.59;5021443;28;20718;-78
2023/08/03 11:35:41;;;;;;;5.82;1.30;;;;;;;18.61;76.19;99300.13;5021560;28;20049;-78
2023/08/03 11:38:10;;;;;;;4.90;0.95;;;;;;;18.66;76.11;99305.88;5030245;28;20120;-78